Terminal Aerodrome Forecast
Issued by NWS

Home | Current Version | Previous Version | Text Only | Print | Product List | Glossary On
Versions: 1 2 3 4 5 6 7 8 9 10 11 12 13 14 15 16 17 18 19
000
FTUS43 KDVN 251600 AAA
TAFCID
TAF AMD
KCID 251619Z 2516/2612 18006KT P6SM VCTS SCT040CB BKN120
     FM251800 22009KT P6SM SCT050
     FM252200 27004KT P6SM SCT100 PROB30 2603/2607 4SM TSRA BKN050CB
     FM260700 29003KT 5SM BR VCTS BKN100CB=

USA.gov is the U.S. government's official web portal to all federal, state and local government web resources and services.